Time;durP1;ratioP1;P1;durP2;ratioP2;P2;SDS_P1;SDS_P2;PMS_P1;PMS_P2;Temp;Humidity;BMP_temperature;BMP_pressure;BME280_temperature;BME280_humidity;BME280_pressure;Samples;Min_cycle;Max_cycle;Signal;HPM_P1;HPM_P2
2022/12/06 00:01:44;;;;;;;120.25;73.75;;;9.40;99.90;;;;;;5568503;23;20047;-93
2022/12/06 00:18:45;;;;;;;86.97;57.97;;;9.30;99.90;;;;;;5200941;23;20058;-92
2022/12/06 00:21:33;;;;;;;;;;;;;;;;;;;;;
2022/12/06 00:24:06;;;;;;;87.25;57.17;;;9.30;99.90;;;;;;4936418;29;20031;-92
2022/12/06 00:26:38;;;;;;;81.20;52.47;;;9.20;99.90;;;;;;4920401;29;20110;-92
2022/12/06 00:29:05;;;;;;;74.72;49.58;;;9.30;99.90;;;;;;4916908;29;20031;-93
2022/12/06 00:31:33;;;;;;;83.90;55.28;;;9.30;99.90;;;;;;4902008;29;20040;-93
2022/12/06 00:34:20;;;;;;;80.22;55.70;;;9.30;99.90;;;;;;4901588;29;20024;-92
2022/12/06 00:36:47;;;;;;;80.88;52.53;;;9.30;99.90;;;;;;4885797;29;20028;-92
2022/12/06 00:39:18;;;;;;;78.28;49.75;;;9.20;99.90;;;;;;4901506;29;20028;-93
2022/12/06 00:41:45;;;;;;;101.75;61.38;;;9.20;99.90;;;;;;4905391;29;20036;-91
2022/12/06 00:44:35;;;;;;;71.80;49.65;;;9.20;99.90;;;;;;4906720;29;20031;-92
2022/12/06 00:47:05;;;;;;;77.25;51.05;;;9.20;99.90;;;;;;4831067;29;20049;-93
2022/12/06 00:49:41;;;;;;;70.82;47.53;;;9.20;99.90;;;;;;4816144;29;20472;-93
2022/12/06 00:52:31;;;;;;;79.88;53.70;;;9.10;99.90;;;;;;4815792;29;20111;-93
2022/12/06 00:55:12;;;;;;;72.55;46.00;;;9.10;99.90;;;;;;4817724;29;20488;-93
2022/12/06 00:57:56;;;;;;;77.38;50.10;;;9.10;99.90;;;;;;4830146;29;20046;-93
2022/12/06 01:00:45;;;;;;;77.18;49.47;;;9.10;99.90;;;;;;4815975;29;20041;-93
2022/12/06 01:03:34;;;;;;;77.30;49.97;;;9.20;99.90;;;;;;4818425;29;20198;-93
2022/12/06 01:06:14;;;;;;;71.40;46.15;;;9.10;99.90;;;;;;4830735;29;20050;-93
2022/12/06 01:09:05;;;;;;;74.82;48.90;;;9.10;99.90;;;;;;4816248;29;20059;-93
2022/12/06 01:11:34;;;;;;;74.88;45.40;;;9.10;99.90;;;;;;4830925;29;20041;-93
2022/12/06 01:21:36;;;;;;;68.18;42.95;;;9.10;99.90;;;;;;4777673;30;20056;-93
2022/12/06 01:24:51;;;;;;;;;;;;;;;;;;;;;
2022/12/06 01:28:20;;;;;;;52.38;35.33;;;9.10;99.90;;;;;;4724935;30;20140;-93
2022/12/06 01:31:34;;;;;;;;;;;;;;;;;;;;;
2022/12/06 01:34:42;;;;;;;51.03;34.05;;;9.10;99.90;;;;;;4695858;30;20141;-93
2022/12/06 01:37:24;;;;;;;;;;;;;;;;;;;;;
2022/12/06 01:40:06;;;;;;;62.15;40.25;;;9.10;99.90;;;;;;4671577;30;20061;-92
2022/12/06 01:42:44;;;;;;;51.53;34.22;;;9.20;99.90;;;;;;4673461;30;20049;-93
2022/12/06 01:45:29;;;;;;;63.85;39.92;;;9.20;99.90;;;;;;4686334;30;20049;-92
2022/12/06 01:48:08;;;;;;;60.33;39.33;;;9.20;99.90;;;;;;4678718;30;20050;-93
2022/12/06 01:50:49;;;;;;;59.03;36.50;;;9.10;99.90;;;;;;4671400;30;20045;-93
2022/12/06 01:53:38;;;;;;;55.85;34.92;;;9.10;99.90;;;;;;4679769;30;20049;-93
2022/12/06 01:56:17;;;;;;;39.67;28.25;;;9.10;99.90;;;;;;4687836;30;20045;-93
2022/12/06 01:59:35;;;;;;;39.25;28.00;;;9.10;99.90;;;;;;4734333;30;20045;-93
2022/12/06 02:02:19;;;;;;;44.97;31.00;;;9.10;99.90;;;;;;4719220;30;20095;-93
2022/12/06 02:05:12;;;;;;;51.15;31.42;;;9.10;99.90;;;;;;4685942;30;20144;-93
2022/12/06 02:08:15;;;;;;;;;;;;;;;;;;;;;
2022/12/06 02:11:27;;;;;;;47.80;29.42;;;9.00;99.90;;;;;;4702806;30;20046;-93
2022/12/06 02:14:17;;;;;;;38.33;24.42;;;8.90;99.90;;;;;;4688073;30;20041;-93
2022/12/06 02:17:58;;;;;;;41.05;27.92;;;8.90;99.90;;;;;;4689204;30;20073;-93
2022/12/06 02:21:11;;;;;;;39.33;25.30;;;8.90;99.90;;;;;;4675036;30;20046;-93
2022/12/06 02:24:08;;;;;;;41.30;28.15;;;8.90;99.90;;;;;;4670757;30;20141;-93
2022/12/06 02:26:57;;;;;;;41.13;25.77;;;8.90;99.90;;;;;;4668130;30;20355;-93
2022/12/06 02:30:24;;;;;;;44.10;28.05;;;8.70;99.90;;;;;;4667585;30;20129;-93
2022/12/06 02:33:16;;;;;;;;;;;;;;;;;;;;;
2022/12/06 02:36:26;;;;;;;44.85;24.23;;;8.70;99.90;;;;;;4702160;30;20061;-93
2022/12/06 02:39:19;;;;;;;45.08;28.50;;;8.70;99.90;;;;;;4699591;30;20484;-93
2022/12/06 02:42:13;;;;;;;41.00;28.30;;;8.70;99.90;;;;;;4723064;30;20052;-94
2022/12/06 02:45:13;;;;;;;46.70;30.20;;;8.80;99.90;;;;;;4755767;30;20115;-93
2022/12/06 03:10:39;;;;;;;31.70;23.42;;;8.80;99.90;;;;;;4670949;30;20113;-93
2022/12/06 03:16:30;;;;;;;37.70;25.02;;;8.80;99.90;;;;;;5100003;23;20056;-93
2022/12/06 03:19:14;;;;;;;55.30;30.20;;;8.80;99.90;;;;;;4922718;29;20122;-92
2022/12/06 03:25:54;;;;;;;39.95;23.55;;;8.70;99.90;;;;;;4773038;30;20051;-92
2022/12/06 03:28:32;;;;;;;46.47;26.08;;;8.70;99.90;;;;;;4732593;29;20090;-93
2022/12/06 03:31:02;;;;;;;34.25;22.92;;;8.70;99.90;;;;;;4723701;30;20040;-93
2022/12/06 03:33:34;;;;;;;46.45;26.73;;;8.70;99.90;;;;;;4738836;30;20427;-93
2022/12/06 03:36:23;;;;;;;46.00;28.10;;;8.70;99.90;;;;;;4738754;30;20044;-93
2022/12/06 03:38:59;;;;;;;39.95;24.77;;;8.70;99.90;;;;;;4724140;30;20402;-93
2022/12/06 03:42:09;;;;;;;;;;;;;;;;;;;;;
2022/12/06 03:45:04;;;;;;;36.70;23.13;;;8.50;99.90;;;;;;4754462;30;20097;-93
2022/12/06 03:47:52;;;;;;;39.88;24.10;;;8.50;99.90;;;;;;4723844;29;20036;-92
2022/12/06 03:50:49;;;;;;;40.15;24.50;;;8.50;99.90;;;;;;4738674;30;20151;-92
2022/12/06 03:53:17;;;;;;;37.70;23.55;;;8.50;99.90;;;;;;4754015;30;20513;-93
2022/12/06 03:59:41;;;;;;;55.47;24.92;;;8.50;99.90;;;;;;4700614;30;20119;-92
2022/12/06 04:02:11;;;;;;;35.38;19.70;;;8.60;99.90;;;;;;4735835;29;20091;-92
2022/12/06 04:04:46;;;;;;;38.63;20.30;;;8.60;99.90;;;;;;4844257;29;20124;-93
2022/12/06 04:12:12;;;;;;;;;;;;;;;;;;;;;
2022/12/06 04:15:53;;;;;;;19.00;13.48;;;8.60;99.90;;;;;;4825377;29;20052;-92
2022/12/06 04:19:14;;;;;;;16.33;12.13;;;8.70;99.90;;;;;;4810033;29;20133;-93
2022/12/06 04:25:34;;;;;;;;;;;;;;;;;;;;;
2022/12/06 04:40:57;;;;;;;13.93;9.07;;;8.80;99.90;;;;;;4753752;30;20063;-93
2022/12/06 04:43:45;;;;;;;14.10;7.60;;;8.80;99.90;;;;;;4755294;30;20508;-92
2022/12/06 04:46:23;;;;;;;24.48;6.82;;;8.70;99.90;;;;;;4757471;30;20106;-93
2022/12/06 04:48:51;;;;;;;9.48;6.85;;;8.70;99.90;;;;;;4761300;30;20134;-91
2022/12/06 04:51:18;;;;;;;13.85;7.70;;;8.60;99.90;;;;;;4763805;29;20118;-92
2022/12/06 04:53:56;;;;;;;17.88;8.13;;;8.70;99.90;;;;;;4812015;29;20035;-93
2022/12/06 04:56:26;;;;;;;28.83;9.05;;;8.70;99.90;;;;;;4813056;29;20509;-93
2022/12/06 04:58:53;;;;;;;43.30;9.77;;;8.70;99.90;;;;;;4795799;29;20045;-93
2022/12/06 05:01:35;;;;;;;23.65;9.43;;;8.70;99.90;;;;;;4805414;29;20042;-91
2022/12/06 05:04:40;;;;;;;30.10;13.18;;;8.70;99.90;;;;;;4816167;29;20042;-93
2022/12/06 05:08:14;;;;;;;;;;;;;;;;;;;;;
2022/12/06 05:10:53;;;;;;;21.70;14.18;;;8.60;99.90;;;;;;4844373;29;20053;-93
2022/12/06 05:18:26;;;;;;;34.00;18.75;;;8.60;99.90;;;;;;5223613;23;20047;-92
2022/12/06 19:06:08;;;;;;;54.30;28.23;;;12.30;99.90;;;;;;6117926;23;20097;31
2022/12/06 19:08:37;;;;;;;58.60;31.25;;;12.30;99.90;;;;;;6057892;23;20022;-93
2022/12/06 19:11:06;;;;;;;49.33;25.63;;;12.30;99.90;;;;;;6110064;23;20063;-92
2022/12/06 19:13:32;;;;;;;40.90;25.30;;;12.10;99.90;;;;;;6107290;23;20009;-90
2022/12/06 19:16:03;;;;;;;56.22;26.80;;;12.00;99.90;;;;;;6107647;23;20013;-93
2022/12/06 19:18:30;;;;;;;43.75;25.30;;;12.00;99.90;;;;;;6109317;23;20033;-91
2022/12/06 19:21:00;;;;;;;42.72;23.95;;;12.00;99.90;;;;;;6132896;23;20084;-93
2022/12/06 19:23:27;;;;;;;47.67;27.55;;;11.90;99.90;;;;;;6131419;23;20009;-94
2022/12/06 19:26:03;;;;;;;45.80;26.50;;;11.90;99.90;;;;;;6131668;23;20002;-93
2022/12/06 19:28:33;;;;;;;41.60;22.80;;;11.90;99.90;;;;;;6131772;23;20009;-94
2022/12/06 19:31:24;;;;;;;37.95;21.15;;;11.90;99.90;;;;;;6136087;23;20064;-93
2022/12/06 19:34:29;;;;;;;50.70;22.85;;;11.90;99.90;;;;;;6145175;23;20021;-94
2022/12/06 19:37:01;;;;;;;42.75;23.95;;;11.90;99.90;;;;;;6160851;23;20005;-94
2022/12/06 19:39:27;;;;;;;45.03;25.75;;;11.90;99.90;;;;;;6186468;23;20016;-94
2022/12/06 19:55:13;;;;;;;63.53;33.60;;;11.90;99.90;;;;;;6189473;23;20028;-92
2022/12/06 20:00:48;;;;;;;64.28;36.42;;;12.10;99.90;;;;;;6195605;23;20076;-91
2022/12/06 20:07:27;;;;;;;55.45;30.25;;;12.20;99.90;;;;;;6179561;23;20020;-92
2022/12/06 20:10:05;;;;;;;56.33;25.87;;;12.20;99.90;;;;;;6104630;23;20069;-91
2022/12/06 20:12:48;;;;;;;51.80;29.25;;;12.10;99.90;;;;;;6084513;23;20070;-92
2022/12/06 20:18:24;;;;;;;54.35;27.92;;;11.90;99.90;;;;;;6173183;23;20048;-94
2022/12/06 20:21:09;;;;;;;61.65;31.60;;;11.90;99.90;;;;;;6129504;23;20084;-93
2022/12/06 20:23:53;;;;;;;;;;;;;;;;;;;;;
2022/12/06 20:26:58;;;;;;;46.08;24.90;;;11.80;99.90;;;;;;6163027;23;20025;-94
2022/12/06 20:29:32;;;;;;;50.90;27.65;;;11.90;99.90;;;;;;6111621;23;20006;-94
2022/12/06 20:32:03;;;;;;;53.50;30.48;;;12.00;99.90;;;;;;6137507;23;20028;-94
2022/12/06 20:34:35;;;;;;;60.60;35.10;;;12.00;99.90;;;;;;6167552;23;20013;-93
2022/12/06 20:37:11;;;;;;;70.78;35.85;;;12.00;99.90;;;;;;6135298;23;20014;-92
2022/12/06 20:39:38;;;;;;;64.78;32.75;;;12.00;99.90;;;;;;6131283;23;20009;-91
2022/12/06 20:42:08;;;;;;;49.03;27.95;;;12.00;99.90;;;;;;6130793;23;20002;-92
2022/12/06 20:44:43;;;;;;;52.40;28.73;;;11.90;99.90;;;;;;6133967;23;20041;-92
2022/12/06 20:47:19;;;;;;;53.75;29.67;;;11.80;99.90;;;;;;6136529;23;20006;-92
